createdAt,value
2022-09-26T00:01:17.002Z,93772.56
2022-09-26T00:03:45.948Z,93767.94
2022-09-26T00:06:13.323Z,93772.69
2022-09-26T00:08:40.228Z,93778.50
2022-09-26T00:11:09.335Z,93769.13
2022-09-26T00:13:38.139Z,93765.31
2022-09-26T00:16:05.634Z,93767.91
2022-09-26T00:18:32.683Z,93761.47
2022-09-26T00:21:04.618Z,93751.63
2022-09-26T00:23:31.285Z,93760.53
2022-09-26T00:25:58.551Z,93760.06
2022-09-26T00:28:25.522Z,93747.63
2022-09-26T00:30:52.207Z,93758.22
2022-09-26T00:33:18.721Z,93751.63
2022-09-26T00:35:52.891Z,93752.69
2022-09-26T00:38:20.057Z,93740.13
2022-09-26T00:40:47.973Z,93740.75
2022-09-26T00:43:42.371Z,93733.72
2022-09-26T00:46:27.728Z,93732.94
2022-09-26T00:49:04.937Z,93728.31
2022-09-26T00:51:33.861Z,93732.00
2022-09-26T00:54:00.668Z,93719.56
2022-09-26T00:56:31.897Z,93719.56
2022-09-26T00:59:16.944Z,93721.41
2022-09-26T01:01:43.435Z,93728.75
2022-09-26T01:04:12.554Z,93721.25
2022-09-26T01:06:39.510Z,93716.81
2022-09-26T01:09:09.816Z,93708.50
2022-09-26T01:11:37.614Z,93710.81
2022-09-26T01:14:06.371Z,93717.56
2022-09-26T01:16:34.151Z,93718.34
2022-09-26T01:19:04.225Z,93722.78
2022-09-26T01:21:57.161Z,93717.88
2022-09-26T01:24:48.149Z,93720.78
2022-09-26T01:27:45.382Z,93721.84
2022-09-26T01:30:21.477Z,93721.69
2022-09-26T01:33:13.034Z,93713.56
2022-09-26T01:36:02.984Z,93713.56
2022-09-26T01:38:52.532Z,93720.59
2022-09-26T01:41:34.000Z,93703.28
2022-09-26T01:44:16.325Z,93712.75
2022-09-26T01:46:52.139Z,93711.97
2022-09-26T01:49:34.103Z,93715.16
2022-09-26T01:52:10.449Z,93713.16
2022-09-26T01:54:42.869Z,93720.53
2022-09-26T01:57:15.903Z,93712.69
2022-09-26T01:59:49.896Z,93715.03
2022-09-26T02:02:21.436Z,93716.84
2022-09-26T02:04:55.154Z,93720.22
2022-09-26T02:07:31.665Z,93722.94
2022-09-26T02:10:06.037Z,93720.97
2022-09-26T02:12:39.468Z,93716.81
2022-09-26T02:15:12.909Z,93721.72
2022-09-26T02:17:43.859Z,93717.09
2022-09-26T02:20:16.254Z,93718.47
2022-09-26T02:22:44.380Z,93719.84
2022-09-26T02:25:14.858Z,93715.06
2022-09-26T02:27:41.531Z,93708.03
2022-09-26T02:30:10.182Z,93709.09
2022-09-26T02:32:37.219Z,93712.28
2022-09-26T02:35:37.653Z,93704.47
2022-09-26T02:38:05.555Z,93710.75
2022-09-26T02:40:51.309Z,93712.28
2022-09-26T02:43:54.065Z,93716.44
2022-09-26T02:46:28.472Z,93715.94
2022-09-26T02:49:33.532Z,93710.00
2022-09-26T02:52:16.028Z,93714.72
2022-09-26T02:54:58.583Z,93707.22
2022-09-26T02:57:47.117Z,93710.28
2022-09-26T03:00:20.969Z,93707.22
2022-09-26T03:02:55.238Z,93705.69
2022-09-26T03:05:26.223Z,93702.00
2022-09-26T03:08:02.474Z,93695.44
2022-09-26T03:10:31.772Z,93697.72
2022-09-26T03:13:04.242Z,93699.28
2022-09-26T03:15:33.067Z,93696.84
2022-09-26T03:18:01.799Z,93695.63
2022-09-26T03:20:28.917Z,93690.56
2022-09-26T03:22:55.912Z,93682.00
2022-09-26T03:25:25.818Z,93682.63
2022-09-26T03:28:02.237Z,93681.56
2022-09-26T03:30:32.194Z,93686.63
2022-09-26T03:33:17.348Z,93684.34
2022-09-26T03:35:43.769Z,93684.63
2022-09-26T03:38:14.241Z,93669.44
2022-09-26T03:40:46.525Z,93668.22
2022-09-26T03:43:47.848Z,93660.41
2022-09-26T03:46:15.810Z,93650.88
2022-09-26T03:48:43.116Z,93662.97
2022-09-26T03:51:13.115Z,93659.59
2022-09-26T03:53:42.376Z,93655.94
2022-09-26T03:56:14.889Z,93633.69
2022-09-26T03:58:42.427Z,93640.91
2022-09-26T04:01:11.936Z,93649.91
2022-09-26T04:03:42.370Z,93649.44
2022-09-26T04:06:11.475Z,93655.53
2022-09-26T04:08:41.668Z,93639.47
2022-09-26T04:11:12.342Z,93645.06
2022-09-26T04:13:51.339Z,93637.59
2022-09-26T04:16:22.594Z,93637.13
2022-09-26T04:18:59.144Z,93634.53
2022-09-26T04:21:27.151Z,93638.94
2022-09-26T04:23:54.536Z,93632.97
2022-09-26T04:26:24.217Z,93623.63
2022-09-26T04:28:54.749Z,93608.50
2022-09-26T04:31:24.217Z,93604.53
2022-09-26T04:33:57.066Z,93605.75
2022-09-26T04:36:23.767Z,93605.94
2022-09-26T04:38:50.172Z,93611.13
2022-09-26T04:41:20.017Z,93604.06
2022-09-26T04:43:48.610Z,93606.69
2022-09-26T04:46:24.557Z,93605.16
2022-09-26T04:48:56.332Z,93596.91
2022-09-26T04:51:25.907Z,93605.16
2022-09-26T04:53:52.674Z,93611.44
2022-09-26T04:56:26.239Z,93596.72
2022-09-26T04:58:56.109Z,93603.63
2022-09-26T05:01:24.569Z,93600.56
2022-09-26T05:04:08.066Z,93608.00
2022-09-26T05:06:34.435Z,93602.34
2022-09-26T05:09:04.120Z,93603.88
2022-09-26T05:11:40.392Z,93603.88
2022-09-26T05:14:10.657Z,93607.53
2022-09-26T05:16:38.865Z,93614.28
2022-09-26T05:19:06.341Z,93606.78
2022-09-26T05:21:36.065Z,93612.75
2022-09-26T05:24:21.058Z,93608.31
2022-09-26T05:26:50.715Z,93597.13
2022-09-26T05:29:20.351Z,93599.28
2022-09-26T05:31:54.553Z,93601.09
2022-09-26T05:34:24.958Z,93603.44
2022-09-26T05:36:53.161Z,93601.44
2022-09-26T05:39:42.301Z,93605.41
2022-09-26T05:42:09.972Z,93589.19
2022-09-26T05:44:37.654Z,93599.50
2022-09-26T05:47:04.506Z,93590.59
2022-09-26T05:49:32.880Z,93585.84
2022-09-26T05:51:59.596Z,93577.78
2022-09-26T05:54:26.410Z,93578.69
2022-09-26T05:56:54.031Z,93587.72
2022-09-26T05:59:38.675Z,93579.63
2022-09-26T06:02:25.364Z,93576.72
2022-09-26T06:05:10.428Z,93584.25
2022-09-26T06:07:36.774Z,93585.47
2022-09-26T06:10:07.435Z,93591.72
2022-09-26T06:12:40.830Z,93588.06
2022-09-26T06:15:09.425Z,93585.94
2022-09-26T06:17:36.342Z,93575.97
2022-09-26T06:20:04.391Z,93577.22
2022-09-26T06:22:39.228Z,93580.28
2022-09-26T06:25:06.279Z,93582.56
2022-09-26T06:27:38.717Z,93582.56
2022-09-26T06:30:12.911Z,93587.78
2022-09-26T06:32:40.253Z,93587.78
2022-09-26T06:35:20.652Z,93589.16
2022-09-26T06:38:01.256Z,93586.88
2022-09-26T06:40:29.087Z,93586.28
2022-09-26T06:42:55.921Z,93580.47
2022-09-26T06:45:27.788Z,93583.84
2022-09-26T06:48:08.395Z,93588.91
2022-09-26T06:50:58.475Z,93585.69
2022-09-26T06:53:24.925Z,93582.19
2022-09-26T06:55:51.359Z,93585.09
2022-09-26T06:58:17.853Z,93582.97
2022-09-26T07:00:53.609Z,93585.91
2022-09-26T07:03:42.920Z,93575.31
2022-09-26T07:06:30.961Z,93577.16
2022-09-26T07:09:02.991Z,93574.41
2022-09-26T07:12:13.973Z,93568.88
2022-09-26T07:14:42.017Z,93570.25
2022-09-26T07:17:21.476Z,93575.91
2022-09-26T07:20:10.263Z,93580.53
2022-09-26T07:22:55.675Z,93571.78
2022-09-26T07:25:22.888Z,93563.66
2022-09-26T07:27:51.536Z,93558.59
2022-09-26T07:30:21.316Z,93555.66
2022-09-26T07:33:03.473Z,93559.19
2022-09-26T07:35:36.482Z,93553.66
2022-09-26T07:38:05.051Z,93562.88
2022-09-26T07:40:32.314Z,93551.56
2022-09-26T07:43:19.734Z,93547.72
2022-09-26T07:46:09.241Z,93548.34
2022-09-26T07:48:54.903Z,93551.72
2022-09-26T07:51:40.088Z,93550.78
2022-09-26T07:54:10.674Z,93551.69
2022-09-26T07:56:55.734Z,93545.56
2022-09-26T07:59:36.632Z,93545.56
2022-09-26T08:02:25.760Z,93554.16
2022-09-26T08:04:58.876Z,93553.81
2022-09-26T08:07:27.766Z,93551.53
2022-09-26T08:10:02.910Z,93552.44
2022-09-26T08:12:48.373Z,93554.72
2022-09-26T08:15:30.447Z,93557.84
2022-09-26T08:18:05.266Z,93557.84
2022-09-26T08:20:32.465Z,93556.72
2022-09-26T08:23:00.137Z,93551.84
2022-09-26T08:25:26.742Z,93552.44
2022-09-26T08:28:01.165Z,93550.88
2022-09-26T08:30:31.185Z,93552.56
2022-09-26T08:33:01.962Z,93546.25
2022-09-26T08:35:35.583Z,93553.16
2022-09-26T08:38:15.461Z,93541.78
2022-09-26T08:40:51.429Z,93542.84
2022-09-26T08:43:49.207Z,93523.63
2022-09-26T08:46:59.202Z,93507.16
2022-09-26T08:49:55.767Z,93511.66
2022-09-26T08:52:41.237Z,93507.31
2022-09-26T08:55:15.702Z,93512.94
2022-09-26T08:57:45.050Z,93516.38
2022-09-26T09:00:19.315Z,93514.03
2022-09-26T09:03:03.055Z,93509.84
2022-09-26T09:05:33.849Z,93516.41
2022-09-26T09:08:07.820Z,93515.31
2022-09-26T09:10:47.197Z,93508.47
2022-09-26T09:13:24.479Z,93509.47
2022-09-26T09:16:20.579Z,93513.66
2022-09-26T09:19:48.609Z,93513.00
2022-09-26T09:23:13.619Z,93504.00
2022-09-26T09:25:55.314Z,93509.53
2022-09-26T09:28:53.140Z,93509.53
2022-09-26T09:31:21.463Z,93508.63
2022-09-26T09:34:02.008Z,93517.34
2022-09-26T09:36:54.115Z,93513.59
2022-09-26T09:39:35.168Z,93498.00
2022-09-26T09:42:19.997Z,93502.28
2022-09-26T09:44:57.598Z,93500.00
2022-09-26T09:47:27.547Z,93496.03
2022-09-26T09:49:56.689Z,93493.09
2022-09-26T09:52:52.964Z,93498.66
2022-09-26T09:55:42.444Z,93482.84
2022-09-26T09:58:43.690Z,93485.28
2022-09-26T10:01:18.859Z,93489.00
2022-09-26T10:04:01.228Z,93477.31
2022-09-26T10:06:45.393Z,93478.59
2022-09-26T10:09:38.845Z,93474.66
2022-09-26T10:12:28.737Z,93473.91
2022-09-26T10:15:26.215Z,93468.91
2022-09-26T10:18:24.708Z,93462.34
2022-09-26T10:21:16.307Z,93471.75
2022-09-26T10:23:46.756Z,93475.31
2022-09-26T10:26:34.817Z,93457.22
2022-09-26T10:29:25.024Z,93457.41
2022-09-26T10:31:57.217Z,93456.88
2022-09-26T10:34:27.865Z,93458.75
2022-09-26T10:36:55.901Z,93464.53
2022-09-26T10:39:49.232Z,93460.50
2022-09-26T10:42:19.999Z,93461.59
2022-09-26T10:44:50.420Z,93469.56
2022-09-26T10:47:21.948Z,93446.59
2022-09-26T10:50:29.359Z,93443.66
2022-09-26T10:53:13.996Z,93432.41
2022-09-26T10:55:46.095Z,93438.41
2022-09-26T10:58:24.011Z,93428.22
2022-09-26T11:00:54.230Z,93435.13
2022-09-26T11:03:38.371Z,93434.22
2022-09-26T11:06:35.501Z,93430.44
2022-09-26T11:09:27.323Z,93427.94
2022-09-26T11:12:29.988Z,93420.72
2022-09-26T11:15:13.689Z,93426.06
2022-09-26T11:17:47.219Z,93414.88
2022-09-26T11:20:22.117Z,93397.81
2022-09-26T11:22:58.306Z,93410.31
2022-09-26T11:25:29.192Z,93408.75
2022-09-26T11:28:07.004Z,93396.09
2022-09-26T11:30:54.009Z,93401.16
2022-09-26T11:33:24.618Z,93401.25
2022-09-26T11:36:27.093Z,93394.22
2022-09-26T11:38:57.783Z,93388.28
2022-09-26T11:41:37.051Z,93387.06
2022-09-26T11:44:42.051Z,93380.69
2022-09-26T11:47:54.188Z,93373.75
2022-09-26T11:50:56.164Z,93362.66
2022-09-26T11:53:45.775Z,93354.03
2022-09-26T11:56:33.945Z,93343.41
2022-09-26T11:59:20.520Z,93342.19
2022-09-26T12:01:55.731Z,93338.44
2022-09-26T12:04:45.615Z,93332.19
2022-09-26T12:07:22.288Z,93327.47
2022-09-26T12:10:25.188Z,93330.78
2022-09-26T12:13:17.784Z,93325.25
2022-09-26T12:16:02.775Z,93316.56
2022-09-26T12:18:40.114Z,93314.59
2022-09-26T12:21:31.643Z,93305.44
2022-09-26T12:24:00.781Z,93301.06
2022-09-26T12:26:39.702Z,93284.94
2022-09-26T12:29:39.812Z,93293.69
2022-09-26T12:32:41.406Z,93284.25
2022-09-26T12:35:32.197Z,93268.34
2022-09-26T12:38:15.657Z,93266.63
2022-09-26T12:41:01.986Z,93264.00
2022-09-26T12:43:50.982Z,93265.84
2022-09-26T12:46:41.482Z,93264.56
2022-09-26T12:49:13.915Z,93256.16
2022-09-26T12:51:42.821Z,93257.78
2022-09-26T12:54:15.463Z,93260.72
2022-09-26T12:56:51.704Z,93259.44
2022-09-26T12:59:34.307Z,93252.63
2022-09-26T13:02:41.969Z,93251.19
2022-09-26T13:05:27.888Z,93247.56
2022-09-26T13:08:18.364Z,93247.38
2022-09-26T13:11:07.818Z,93252.44
2022-09-26T13:13:49.181Z,93235.63
2022-09-26T13:16:25.276Z,93241.66
2022-09-26T13:18:56.455Z,93235.78
2022-09-26T13:21:38.419Z,93211.69
2022-09-26T13:24:13.884Z,93221.78
2022-09-26T13:26:46.827Z,93222.59
2022-09-26T13:29:27.001Z,93222.00
2022-09-26T13:32:06.362Z,93217.91
2022-09-26T13:34:45.249Z,93212.56
2022-09-26T13:37:32.337Z,93215.88
2022-09-26T13:40:09.656Z,93201.16
2022-09-26T13:42:47.969Z,93206.56
2022-09-26T13:45:36.168Z,93201.22
2022-09-26T13:48:16.644Z,93206.00
2022-09-26T13:50:55.876Z,93200.38
2022-09-26T13:53:38.093Z,93210.44
2022-09-26T13:56:40.336Z,93211.50
2022-09-26T13:59:12.664Z,93206.19
2022-09-26T14:01:59.735Z,93208.09
2022-09-26T14:04:34.497Z,93203.25
2022-09-26T14:07:28.999Z,93203.09
2022-09-26T14:10:03.625Z,93196.69
2022-09-26T14:12:52.557Z,93200.56
2022-09-26T14:15:28.267Z,93193.38
2022-09-26T14:18:07.809Z,93185.09
2022-09-26T14:20:50.685Z,93183.16
2022-09-26T14:23:39.026Z,93168.38
2022-09-26T14:26:28.174Z,93170.19
2022-09-26T14:28:56.481Z,93175.75
2022-09-26T14:31:26.154Z,93176.13
2022-09-26T14:34:15.433Z,93171.91
2022-09-26T14:36:43.847Z,93175.00
2022-09-26T14:39:34.461Z,93176.72
2022-09-26T14:42:08.986Z,93177.16
2022-09-26T14:44:37.391Z,93168.19
2022-09-26T14:47:11.260Z,93162.34
2022-09-26T14:49:37.713Z,93160.06
2022-09-26T14:52:08.941Z,93161.16
2022-09-26T14:54:40.245Z,93168.09
2022-09-26T14:57:20.877Z,93169.56
2022-09-26T14:59:47.963Z,93155.56
2022-09-26T15:02:14.401Z,93160.66
2022-09-26T15:04:43.373Z,93160.13
2022-09-26T15:07:24.908Z,93160.63
2022-09-26T15:09:59.697Z,93149.75
2022-09-26T15:12:28.561Z,93145.88
2022-09-26T15:15:15.318Z,93156.44
2022-09-26T15:17:48.612Z,93152.69
2022-09-26T15:20:18.595Z,93160.84
2022-09-26T15:22:47.000Z,93155.13
2022-09-26T15:25:22.801Z,93165.44
2022-09-26T15:27:56.327Z,93167.41
2022-09-26T15:30:27.181Z,93165.06
2022-09-26T15:32:57.909Z,93161.25
2022-09-26T15:35:26.690Z,93152.25
2022-09-26T15:38:00.974Z,93151.44
2022-09-26T15:40:30.146Z,93153.97
2022-09-26T15:43:15.894Z,93154.34
2022-09-26T15:45:59.492Z,93152.81
2022-09-26T15:48:32.464Z,93151.78
2022-09-26T15:51:14.822Z,93141.53
2022-09-26T15:53:49.224Z,93148.97
2022-09-26T15:56:23.857Z,93148.13
2022-09-26T15:59:05.919Z,93146.59
2022-09-26T16:01:40.411Z,93147.91
2022-09-26T16:04:21.800Z,93150.00
2022-09-26T16:06:52.840Z,93146.19
2022-09-26T16:09:34.698Z,93144.91
2022-09-26T16:12:23.332Z,93150.28
2022-09-26T16:14:58.658Z,93141.06
2022-09-26T16:17:40.272Z,93143.56
2022-09-26T16:20:09.647Z,93143.38
2022-09-26T16:22:46.385Z,93146.53
2022-09-26T16:25:15.467Z,93141.34
2022-09-26T16:27:42.416Z,93133.53
2022-09-26T16:30:20.984Z,93131.34
2022-09-26T16:32:47.543Z,93121.31
2022-09-26T16:35:23.851Z,93126.88
2022-09-26T16:37:59.447Z,93119.56
2022-09-26T16:40:30.605Z,93115.00
2022-09-26T16:43:18.860Z,93123.06
2022-09-26T16:45:46.929Z,93118.50
2022-09-26T16:48:36.402Z,93125.78
2022-09-26T16:51:18.373Z,93112.19
2022-09-26T16:53:46.558Z,93125.59
2022-09-26T16:56:15.728Z,93137.44
2022-09-26T16:58:49.013Z,93128.72
2022-09-26T17:01:34.650Z,93131.78
2022-09-26T17:04:01.298Z,93116.06
2022-09-26T17:06:27.760Z,93108.03
2022-09-26T17:08:56.450Z,93096.28
2022-09-26T17:11:23.721Z,93102.13
2022-09-26T17:13:50.261Z,93106.16
2022-09-26T17:16:16.752Z,93097.91
2022-09-26T17:18:44.703Z,93098.66
2022-09-26T17:21:13.964Z,93095.16
2022-09-26T17:23:41.774Z,93100.09
2022-09-26T17:26:23.604Z,93102.69
2022-09-26T17:28:53.264Z,93103.75
2022-09-26T17:31:20.344Z,93103.13
2022-09-26T17:33:52.506Z,93098.22
2022-09-26T17:36:24.826Z,93095.50
2022-09-26T17:38:51.643Z,93095.72
2022-09-26T17:41:18.076Z,93096.03
2022-09-26T17:43:45.092Z,93094.50
2022-09-26T17:46:15.403Z,93092.56
2022-09-26T17:48:43.162Z,93102.09
2022-09-26T17:51:13.773Z,93094.91
2022-09-26T17:53:50.200Z,93082.06
2022-09-26T17:56:18.804Z,93081.19
2022-09-26T17:58:47.149Z,93072.81
2022-09-26T18:01:33.377Z,93064.09
2022-09-26T18:04:06.141Z,93065.16
2022-09-26T18:06:33.114Z,93073.31
2022-09-26T18:09:05.528Z,93064.28
2022-09-26T18:11:34.282Z,93061.13
2022-09-26T18:14:03.278Z,93051.97
2022-09-26T18:16:29.621Z,93057.94
2022-09-26T18:18:56.080Z,93049.78
2022-09-26T18:21:24.125Z,93046.88
2022-09-26T18:23:55.500Z,93046.53
2022-09-26T18:26:21.954Z,93045.91
2022-09-26T18:28:48.365Z,93038.72
2022-09-26T18:31:14.986Z,93031.25
2022-09-26T18:33:41.341Z,93034.91
2022-09-26T18:36:12.064Z,93035.69
2022-09-26T18:38:38.413Z,93036.44
2022-09-26T18:41:06.925Z,93037.88
2022-09-26T18:43:40.495Z,93031.88
2022-09-26T18:46:15.736Z,93025.13
2022-09-26T18:48:42.840Z,93028.06
2022-09-26T18:51:12.793Z,93020.69
2022-09-26T18:53:40.321Z,93013.50
2022-09-26T18:56:26.765Z,93013.94
2022-09-26T18:58:53.595Z,93013.94
2022-09-26T19:01:44.151Z,93013.94
2022-09-26T19:04:17.625Z,93005.69
2022-09-26T19:06:47.062Z,93005.69
2022-09-26T19:09:15.093Z,93002.94
2022-09-26T19:11:42.022Z,93004.69
2022-09-26T19:14:25.762Z,93003.94
2022-09-26T19:16:52.938Z,93011.31
2022-09-26T19:19:20.095Z,93004.56
2022-09-26T19:21:56.820Z,93002.59
2022-09-26T19:24:23.208Z,92998.34
2022-09-26T19:27:06.116Z,92998.22
2022-09-26T19:29:44.927Z,92995.50
2022-09-26T19:32:20.361Z,92998.44
2022-09-26T19:34:51.610Z,92992.47
2022-09-26T19:37:18.200Z,92995.06
2022-09-26T19:39:44.690Z,92994.28
2022-09-26T19:42:11.501Z,92984.22
2022-09-26T19:44:37.876Z,92984.63
2022-09-26T19:47:04.672Z,92981.72
2022-09-26T19:49:32.785Z,92976.50
2022-09-26T19:52:02.071Z,92965.31
2022-09-26T19:54:28.496Z,92968.38
2022-09-26T19:56:54.864Z,92970.97
2022-09-26T19:59:25.325Z,92963.91
2022-09-26T20:01:53.709Z,92958.38
2022-09-26T20:04:20.483Z,92959.91
2022-09-26T20:06:47.204Z,92958.06
2022-09-26T20:09:18.954Z,92957.72
2022-09-26T20:11:45.469Z,92957.44
2022-09-26T20:14:24.408Z,92951.00
2022-09-26T20:16:57.361Z,92949.16
2022-09-26T20:19:34.464Z,92953.63
2022-09-26T20:22:03.122Z,92942.44
2022-09-26T20:24:35.150Z,92942.31
2022-09-26T20:27:03.517Z,92936.66
2022-09-26T20:29:29.986Z,92933.94
2022-09-26T20:31:56.483Z,92925.03
2022-09-26T20:34:22.831Z,92920.91
2022-09-26T20:36:51.500Z,92914.81
2022-09-26T20:39:23.181Z,92919.81
2022-09-26T20:41:51.239Z,92915.38
2022-09-26T20:44:27.241Z,92912.44
2022-09-26T20:46:58.693Z,92900.94
2022-09-26T20:49:34.503Z,92898.44
2022-09-26T20:52:02.377Z,92890.31
2022-09-26T20:54:31.031Z,92889.66
2022-09-26T20:56:58.704Z,92883.69
2022-09-26T20:59:26.070Z,92887.06
2022-09-26T21:01:54.350Z,92878.59
2022-09-26T21:04:29.489Z,92873.47
2022-09-26T21:06:56.156Z,92868.72
2022-09-26T21:09:22.560Z,92866.84
2022-09-26T21:11:48.992Z,92863.94
2022-09-26T21:14:16.604Z,92861.75
2022-09-26T21:16:46.547Z,92847.94
2022-09-26T21:19:21.026Z,92851.19
2022-09-26T21:21:51.711Z,92848.16
2022-09-26T21:24:41.201Z,92846.63
2022-09-26T21:27:11.440Z,92828.84
2022-09-26T21:29:38.025Z,92839.59
2022-09-26T21:32:08.213Z,92838.38
2022-09-26T21:34:36.658Z,92827.19
2022-09-26T21:37:03.754Z,92821.25
2022-09-26T21:39:30.578Z,92823.41
2022-09-26T21:42:01.577Z,92824.03
2022-09-26T21:44:37.495Z,92819.59
2022-09-26T21:47:04.162Z,92814.94
2022-09-26T21:49:30.907Z,92824.59
2022-09-26T21:52:17.269Z,92819.69
2022-09-26T21:54:45.054Z,92819.28
2022-09-26T21:57:17.297Z,92819.91
2022-09-26T21:59:44.228Z,92799.19
2022-09-26T22:02:10.669Z,92808.41
2022-09-26T22:04:37.070Z,92797.56
2022-09-26T22:07:03.433Z,92805.81
2022-09-26T22:09:30.276Z,92798.31
2022-09-26T22:11:56.702Z,92790.06
2022-09-26T22:14:23.058Z,92788.53
2022-09-26T22:16:49.423Z,92790.06
2022-09-26T22:19:16.515Z,92775.97
2022-09-26T22:21:43.083Z,92775.84
2022-09-26T22:24:10.307Z,92775.84
2022-09-26T22:26:36.716Z,92776.50
2022-09-26T22:29:03.209Z,92763.47
2022-09-26T22:31:29.646Z,92758.59
2022-09-26T22:33:57.362Z,92750.00
2022-09-26T22:36:24.301Z,92752.63
2022-09-26T22:38:50.697Z,92749.38
2022-09-26T22:41:17.088Z,92747.94
2022-09-26T22:43:43.426Z,92750.22
2022-09-26T22:46:12.399Z,92742.75
2022-09-26T22:48:45.794Z,92740.56
2022-09-26T22:51:13.777Z,92742.41
2022-09-26T22:53:41.618Z,92745.00
2022-09-26T22:56:11.296Z,92746.13
2022-09-26T22:58:40.562Z,92739.03
2022-09-26T23:01:12.593Z,92725.28
2022-09-26T23:03:40.065Z,92727.41
2022-09-26T23:06:07.933Z,92729.59
2022-09-26T23:08:34.981Z,92728.75
2022-09-26T23:11:02.652Z,92722.34
2022-09-26T23:13:31.465Z,92720.47
2022-09-26T23:16:26.998Z,92702.59
2022-09-26T23:18:54.211Z,92700.28
2022-09-26T23:21:22.982Z,92685.34
2022-09-26T23:23:52.525Z,92693.56
2022-09-26T23:26:22.124Z,92692.94
2022-09-26T23:28:50.063Z,92685.88
2022-09-26T23:31:16.946Z,92684.00
2022-09-26T23:33:43.649Z,92674.03
2022-09-26T23:36:10.954Z,92673.69
2022-09-26T23:38:39.156Z,92671.88
2022-09-26T23:41:10.199Z,92665.78
2022-09-26T23:43:37.514Z,92667.97
2022-09-26T23:46:04.459Z,92666.88
2022-09-26T23:48:30.957Z,92657.53
2022-09-26T23:50:57.598Z,92664.59
2022-09-26T23:53:24.062Z,92662.31
2022-09-26T23:55:50.560Z,92643.56
2022-09-26T23:58:17.053Z,92657.34
